sensor_id;sensor_type;location;lat;lon;timestamp;P1;durP1;ratioP1;P2;durP2;ratioP2
75698;SDS011;64313;51.018;13.742;2024-02-28T00:00:40;27.58;;;12.65;;
75698;SDS011;64313;51.018;13.742;2024-02-28T00:05:31;26.30;;;12.33;;
75698;SDS011;64313;51.018;13.742;2024-02-28T00:10:22;28.50;;;12.40;;
75698;SDS011;64313;51.018;13.742;2024-02-28T00:15:12;25.73;;;11.55;;
75698;SDS011;64313;51.018;13.742;2024-02-28T00:20:04;25.60;;;12.70;;
75698;SDS011;64313;51.018;13.742;2024-02-28T00:22:30;26.13;;;12.20;;
75698;SDS011;64313;51.018;13.742;2024-02-28T00:27:21;23.63;;;11.40;;
75698;SDS011;64313;51.018;13.742;2024-02-28T00:32:12;24.13;;;11.75;;
75698;SDS011;64313;51.018;13.742;2024-02-28T00:34:37;25.10;;;12.30;;
75698;SDS011;64313;51.018;13.742;2024-02-28T00:39:27;25.97;;;12.33;;
75698;SDS011;64313;51.018;13.742;2024-02-28T00:44:18;23.73;;;12.03;;
75698;SDS011;64313;51.018;13.742;2024-02-28T00:49:08;24.33;;;11.20;;
75698;SDS011;64313;51.018;13.742;2024-02-28T00:54:01;21.17;;;10.55;;
75698;SDS011;64313;51.018;13.742;2024-02-28T00:58:52;20.15;;;10.32;;
75698;SDS011;64313;51.018;13.742;2024-02-28T01:01:17;22.05;;;11.15;;
75698;SDS011;64313;51.018;13.742;2024-02-28T01:03:43;22.00;;;10.93;;
75698;SDS011;64313;51.018;13.742;2024-02-28T01:06:08;19.27;;;10.35;;
75698;SDS011;64313;51.018;13.742;2024-02-28T01:10:59;22.53;;;10.20;;
75698;SDS011;64313;51.018;13.742;2024-02-28T01:15:49;18.23;;;9.07;;
75698;SDS011;64313;51.018;13.742;2024-02-28T01:20:40;18.37;;;8.90;;
75698;SDS011;64313;51.018;13.742;2024-02-28T01:25:30;21.50;;;10.00;;
75698;SDS011;64313;51.018;13.742;2024-02-28T01:30:23;21.95;;;10.05;;
75698;SDS011;64313;51.018;13.742;2024-02-28T01:35:13;19.87;;;9.67;;
75698;SDS011;64313;51.018;13.742;2024-02-28T01:40:04;22.07;;;9.90;;
75698;SDS011;64313;51.018;13.742;2024-02-28T01:44:55;20.83;;;9.35;;
75698;SDS011;64313;51.018;13.742;2024-02-28T01:49:47;20.35;;;9.40;;
75698;SDS011;64313;51.018;13.742;2024-02-28T01:54:39;19.75;;;9.68;;
75698;SDS011;64313;51.018;13.742;2024-02-28T01:57:05;21.80;;;10.35;;
75698;SDS011;64313;51.018;13.742;2024-02-28T01:59:31;22.92;;;10.38;;
75698;SDS011;64313;51.018;13.742;2024-02-28T02:04:22;21.17;;;10.27;;
75698;SDS011;64313;51.018;13.742;2024-02-28T02:09:14;23.48;;;10.27;;
75698;SDS011;64313;51.018;13.742;2024-02-28T02:11:40;23.02;;;10.70;;
75698;SDS011;64313;51.018;13.742;2024-02-28T02:16:31;25.60;;;11.23;;
75698;SDS011;64313;51.018;13.742;2024-02-28T02:18:56;26.45;;;11.20;;
75698;SDS011;64313;51.018;13.742;2024-02-28T02:23:49;27.33;;;11.27;;
75698;SDS011;64313;51.018;13.742;2024-02-28T02:28:39;24.87;;;10.60;;
75698;SDS011;64313;51.018;13.742;2024-02-28T02:33:30;26.13;;;11.20;;
75698;SDS011;64313;51.018;13.742;2024-02-28T02:35:55;27.42;;;11.57;;
75698;SDS011;64313;51.018;13.742;2024-02-28T02:38:20;28.50;;;12.13;;
75698;SDS011;64313;51.018;13.742;2024-02-28T02:43:16;25.27;;;12.02;;
75698;SDS011;64313;51.018;13.742;2024-02-28T02:45:41;27.30;;;12.13;;
75698;SDS011;64313;51.018;13.742;2024-02-28T02:48:08;28.13;;;11.35;;
75698;SDS011;64313;51.018;13.742;2024-02-28T02:52:58;27.43;;;11.47;;
75698;SDS011;64313;51.018;13.742;2024-02-28T02:57:49;28.50;;;11.50;;
75698;SDS011;64313;51.018;13.742;2024-02-28T03:00:14;25.55;;;11.35;;
75698;SDS011;64313;51.018;13.742;2024-02-28T03:05:05;24.97;;;10.07;;
75698;SDS011;64313;51.018;13.742;2024-02-28T03:09:57;21.25;;;9.65;;
75698;SDS011;64313;51.018;13.742;2024-02-28T03:12:22;24.50;;;10.80;;
75698;SDS011;64313;51.018;13.742;2024-02-28T03:17:13;27.15;;;11.38;;
75698;SDS011;64313;51.018;13.742;2024-02-28T03:19:40;24.55;;;11.18;;
75698;SDS011;64313;51.018;13.742;2024-02-28T03:24:30;26.60;;;11.60;;
75698;SDS011;64313;51.018;13.742;2024-02-28T03:29:22;25.33;;;11.40;;
75698;SDS011;64313;51.018;13.742;2024-02-28T03:34:13;22.55;;;10.43;;
75698;SDS011;64313;51.018;13.742;2024-02-28T03:39:03;20.40;;;8.47;;
75698;SDS011;64313;51.018;13.742;2024-02-28T03:41:29;19.92;;;9.38;;
75698;SDS011;64313;51.018;13.742;2024-02-28T03:43:55;22.63;;;10.02;;
75698;SDS011;64313;51.018;13.742;2024-02-28T03:48:46;23.48;;;9.82;;
75698;SDS011;64313;51.018;13.742;2024-02-28T03:53:37;22.40;;;10.48;;
75698;SDS011;64313;51.018;13.742;2024-02-28T03:58:28;24.48;;;9.73;;
75698;SDS011;64313;51.018;13.742;2024-02-28T04:03:19;26.70;;;10.43;;
75698;SDS011;64313;51.018;13.742;2024-02-28T04:08:09;22.73;;;9.97;;
75698;SDS011;64313;51.018;13.742;2024-02-28T04:13:00;18.27;;;8.67;;
75698;SDS011;64313;51.018;13.742;2024-02-28T04:17:51;18.47;;;7.57;;
75698;SDS011;64313;51.018;13.742;2024-02-28T04:20:16;20.00;;;8.63;;
75698;SDS011;64313;51.018;13.742;2024-02-28T04:25:08;19.87;;;8.30;;
75698;SDS011;64313;51.018;13.742;2024-02-28T04:27:34;23.17;;;9.60;;
75698;SDS011;64313;51.018;13.742;2024-02-28T04:30:00;23.60;;;10.30;;
75698;SDS011;64313;51.018;13.742;2024-02-28T04:34:50;17.27;;;7.60;;
75698;SDS011;64313;51.018;13.742;2024-02-28T04:39:41;17.93;;;6.60;;
75698;SDS011;64313;51.018;13.742;2024-02-28T04:42:07;17.60;;;8.00;;
75698;SDS011;64313;51.018;13.742;2024-02-28T04:46:57;18.73;;;6.93;;
75698;SDS011;64313;51.018;13.742;2024-02-28T04:49:23;17.33;;;6.70;;
75698;SDS011;64313;51.018;13.742;2024-02-28T04:54:13;19.73;;;7.70;;
75698;SDS011;64313;51.018;13.742;2024-02-28T04:59:05;20.20;;;7.03;;
75698;SDS011;64313;51.018;13.742;2024-02-28T05:01:30;18.08;;;7.40;;
75698;SDS011;64313;51.018;13.742;2024-02-28T05:03:56;19.83;;;7.13;;
75698;SDS011;64313;51.018;13.742;2024-02-28T05:08:47;19.97;;;7.53;;
75698;SDS011;64313;51.018;13.742;2024-02-28T05:13:38;19.20;;;7.27;;
75698;SDS011;64313;51.018;13.742;2024-02-28T05:16:13;20.75;;;8.18;;
75698;SDS011;64313;51.018;13.742;2024-02-28T05:18:39;16.10;;;7.47;;
75698;SDS011;64313;51.018;13.742;2024-02-28T05:23:29;19.73;;;7.50;;
75698;SDS011;64313;51.018;13.742;2024-02-28T05:28:21;15.98;;;6.68;;
75698;SDS011;64313;51.018;13.742;2024-02-28T05:33:11;20.10;;;7.10;;
75698;SDS011;64313;51.018;13.742;2024-02-28T05:35:37;18.58;;;6.88;;
75698;SDS011;64313;51.018;13.742;2024-02-28T05:38:02;18.27;;;6.78;;
75698;SDS011;64313;51.018;13.742;2024-02-28T05:42:53;15.18;;;6.32;;
75698;SDS011;64313;51.018;13.742;2024-02-28T05:45:18;19.27;;;7.15;;
75698;SDS011;64313;51.018;13.742;2024-02-28T05:47:43;19.52;;;7.43;;
75698;SDS011;64313;51.018;13.742;2024-02-28T05:52:35;18.40;;;6.90;;
75698;SDS011;64313;51.018;13.742;2024-02-28T05:57:25;22.20;;;6.60;;
75698;SDS011;64313;51.018;13.742;2024-02-28T06:02:16;19.33;;;6.77;;
75698;SDS011;64313;51.018;13.742;2024-02-28T06:07:06;19.83;;;7.27;;
75698;SDS011;64313;51.018;13.742;2024-02-28T06:11:57;16.97;;;6.87;;
75698;SDS011;64313;51.018;13.742;2024-02-28T06:16:47;20.80;;;7.50;;
75698;SDS011;64313;51.018;13.742;2024-02-28T06:21:38;16.70;;;6.73;;
75698;SDS011;64313;51.018;13.742;2024-02-28T06:26:29;18.38;;;6.68;;
75698;SDS011;64313;51.018;13.742;2024-02-28T06:28:56;15.75;;;6.70;;
75698;SDS011;64313;51.018;13.742;2024-02-28T06:31:26;17.90;;;6.78;;
75698;SDS011;64313;51.018;13.742;2024-02-28T06:36:16;19.87;;;7.10;;
75698;SDS011;64313;51.018;13.742;2024-02-28T06:41:07;19.27;;;7.73;;
75698;SDS011;64313;51.018;13.742;2024-02-28T06:45:58;18.55;;;7.65;;
75698;SDS011;64313;51.018;13.742;2024-02-28T06:50:48;16.00;;;6.67;;
75698;SDS011;64313;51.018;13.742;2024-02-28T06:55:39;18.20;;;7.20;;
75698;SDS011;64313;51.018;13.742;2024-02-28T07:00:30;17.02;;;6.85;;
75698;SDS011;64313;51.018;13.742;2024-02-28T07:02:55;20.83;;;7.95;;
75698;SDS011;64313;51.018;13.742;2024-02-28T07:07:47;21.25;;;7.97;;
75698;SDS011;64313;51.018;13.742;2024-02-28T07:12:38;21.63;;;7.90;;
75698;SDS011;64313;51.018;13.742;2024-02-28T07:17:29;21.23;;;8.27;;
75698;SDS011;64313;51.018;13.742;2024-02-28T07:19:54;20.90;;;8.48;;
75698;SDS011;64313;51.018;13.742;2024-02-28T07:24:46;23.65;;;8.15;;
75698;SDS011;64313;51.018;13.742;2024-02-28T07:29:37;19.00;;;7.63;;
75698;SDS011;64313;51.018;13.742;2024-02-28T07:32:02;17.60;;;7.00;;
75698;SDS011;64313;51.018;13.742;2024-02-28T07:34:28;18.05;;;7.57;;
75698;SDS011;64313;51.018;13.742;2024-02-28T07:39:18;15.83;;;6.73;;
75698;SDS011;64313;51.018;13.742;2024-02-28T07:41:45;16.77;;;7.38;;
75698;SDS011;64313;51.018;13.742;2024-02-28T07:46:36;17.13;;;7.07;;
75698;SDS011;64313;51.018;13.742;2024-02-28T07:51:27;15.67;;;6.53;;
75698;SDS011;64313;51.018;13.742;2024-02-28T07:56:18;16.70;;;6.70;;
75698;SDS011;64313;51.018;13.742;2024-02-28T07:58:45;16.23;;;6.93;;
75698;SDS011;64313;51.018;13.742;2024-02-28T08:03:36;17.58;;;7.50;;
75698;SDS011;64313;51.018;13.742;2024-02-28T08:06:01;17.73;;;8.45;;
75698;SDS011;64313;51.018;13.742;2024-02-28T08:08:27;21.48;;;8.20;;
75698;SDS011;64313;51.018;13.742;2024-02-28T08:13:18;22.50;;;8.77;;
75698;SDS011;64313;51.018;13.742;2024-02-28T08:15:44;21.65;;;8.23;;
75698;SDS011;64313;51.018;13.742;2024-02-28T08:20:36;20.83;;;8.73;;
75698;SDS011;64313;51.018;13.742;2024-02-28T08:23:02;22.10;;;8.27;;
75698;SDS011;64313;51.018;13.742;2024-02-28T08:25:28;19.45;;;7.88;;
75698;SDS011;64313;51.018;13.742;2024-02-28T08:30:19;15.50;;;6.70;;
75698;SDS011;64313;51.018;13.742;2024-02-28T08:35:09;18.53;;;7.77;;
75698;SDS011;64313;51.018;13.742;2024-02-28T08:40:03;18.15;;;7.28;;
75698;SDS011;64313;51.018;13.742;2024-02-28T08:44:54;21.43;;;8.07;;
75698;SDS011;64313;51.018;13.742;2024-02-28T08:47:23;25.25;;;8.95;;
75698;SDS011;64313;51.018;13.742;2024-02-28T08:49:49;19.23;;;8.45;;
75698;SDS011;64313;51.018;13.742;2024-02-28T08:54:39;18.07;;;7.47;;
75698;SDS011;64313;51.018;13.742;2024-02-28T08:59:30;20.63;;;7.63;;
75698;SDS011;64313;51.018;13.742;2024-02-28T09:04:20;17.20;;;6.97;;
75698;SDS011;64313;51.018;13.742;2024-02-28T09:06:47;18.50;;;8.05;;
75698;SDS011;64313;51.018;13.742;2024-02-28T09:09:12;17.05;;;7.38;;
75698;SDS011;64313;51.018;13.742;2024-02-28T09:11:39;19.77;;;7.97;;
75698;SDS011;64313;51.018;13.742;2024-02-28T09:16:29;16.30;;;6.97;;
75698;SDS011;64313;51.018;13.742;2024-02-28T09:21:20;14.90;;;7.00;;
75698;SDS011;64313;51.018;13.742;2024-02-28T09:26:10;15.50;;;6.70;;
75698;SDS011;64313;51.018;13.742;2024-02-28T09:28:35;15.77;;;7.40;;
75698;SDS011;64313;51.018;13.742;2024-02-28T09:33:26;18.60;;;7.03;;
75698;SDS011;64313;51.018;13.742;2024-02-28T09:38:17;21.17;;;8.30;;
75698;SDS011;64313;51.018;13.742;2024-02-28T09:43:11;21.10;;;9.15;;
75698;SDS011;64313;51.018;13.742;2024-02-28T09:45:44;24.35;;;9.55;;
75698;SDS011;64313;51.018;13.742;2024-02-28T09:50:35;25.08;;;10.27;;
75698;SDS011;64313;51.018;13.742;2024-02-28T09:55:26;26.97;;;11.43;;
75698;SDS011;64313;51.018;13.742;2024-02-28T09:57:51;27.58;;;10.90;;
75698;SDS011;64313;51.018;13.742;2024-02-28T10:00:21;29.52;;;11.50;;
75698;SDS011;64313;51.018;13.742;2024-02-28T10:02:48;29.52;;;12.10;;
75698;SDS011;64313;51.018;13.742;2024-02-28T10:05:16;29.40;;;11.60;;
75698;SDS011;64313;51.018;13.742;2024-02-28T10:07:44;27.70;;;11.98;;
75698;SDS011;64313;51.018;13.742;2024-02-28T10:10:10;27.50;;;11.18;;
75698;SDS011;64313;51.018;13.742;2024-02-28T10:15:05;30.15;;;12.38;;
75698;SDS011;64313;51.018;13.742;2024-02-28T10:19:57;31.57;;;12.20;;
75698;SDS011;64313;51.018;13.742;2024-02-28T10:22:24;30.08;;;12.57;;
75698;SDS011;64313;51.018;13.742;2024-02-28T10:27:21;31.38;;;12.18;;
75698;SDS011;64313;51.018;13.742;2024-02-28T10:32:12;30.00;;;11.93;;
75698;SDS011;64313;51.018;13.742;2024-02-28T10:34:37;29.08;;;12.52;;
75698;SDS011;64313;51.018;13.742;2024-02-28T10:37:03;29.58;;;13.65;;
75698;SDS011;64313;51.018;13.742;2024-02-28T10:39:30;29.33;;;12.18;;
75698;SDS011;64313;51.018;13.742;2024-02-28T10:41:57;30.45;;;12.25;;
75698;SDS011;64313;51.018;13.742;2024-02-28T10:44:25;24.77;;;11.35;;
75698;SDS011;64313;51.018;13.742;2024-02-28T10:46:52;27.98;;;11.90;;
75698;SDS011;64313;51.018;13.742;2024-02-28T10:49:19;25.48;;;11.38;;
75698;SDS011;64313;51.018;13.742;2024-02-28T10:54:11;27.88;;;11.95;;
75698;SDS011;64313;51.018;13.742;2024-02-28T10:56:37;26.75;;;10.60;;
75698;SDS011;64313;51.018;13.742;2024-02-28T10:59:05;25.30;;;10.80;;
75698;SDS011;64313;51.018;13.742;2024-02-28T11:01:35;29.17;;;12.48;;
75698;SDS011;64313;51.018;13.742;2024-02-28T11:04:02;29.73;;;12.38;;
75698;SDS011;64313;51.018;13.742;2024-02-28T11:06:28;28.35;;;11.95;;
75698;SDS011;64313;51.018;13.742;2024-02-28T11:11:19;23.47;;;10.23;;
75698;SDS011;64313;51.018;13.742;2024-02-28T11:13:52;24.55;;;11.02;;
75698;SDS011;64313;51.018;13.742;2024-02-28T11:16:28;24.15;;;10.30;;
75698;SDS011;64313;51.018;13.742;2024-02-28T11:18:54;25.30;;;10.60;;
75698;SDS011;64313;51.018;13.742;2024-02-28T11:23:47;24.13;;;10.10;;
75698;SDS011;64313;51.018;13.742;2024-02-28T11:28:39;21.55;;;10.00;;
75698;SDS011;64313;51.018;13.742;2024-02-28T11:33:30;24.83;;;9.52;;
75698;SDS011;64313;51.018;13.742;2024-02-28T11:38:24;22.60;;;9.30;;
75698;SDS011;64313;51.018;13.742;2024-02-28T11:40:53;19.58;;;9.20;;
75698;SDS011;64313;51.018;13.742;2024-02-28T11:43:20;23.73;;;10.38;;
75698;SDS011;64313;51.018;13.742;2024-02-28T11:48:14;25.48;;;10.25;;
75698;SDS011;64313;51.018;13.742;2024-02-28T11:50:41;20.88;;;10.45;;
75698;SDS011;64313;51.018;13.742;2024-02-28T11:55:32;23.77;;;9.70;;
75698;SDS011;64313;51.018;13.742;2024-02-28T12:00:23;24.13;;;10.20;;
75698;SDS011;64313;51.018;13.742;2024-02-28T12:05:13;20.30;;;9.30;;
75698;SDS011;64313;51.018;13.742;2024-02-28T12:10:04;24.87;;;9.67;;
75698;SDS011;64313;51.018;13.742;2024-02-28T12:12:31;24.95;;;10.48;;
75698;SDS011;64313;51.018;13.742;2024-02-28T12:17:26;22.77;;;9.52;;
75698;SDS011;64313;51.018;13.742;2024-02-28T12:22:17;25.58;;;11.38;;
75698;SDS011;64313;51.018;13.742;2024-02-28T12:27:08;24.13;;;10.37;;
75698;SDS011;64313;51.018;13.742;2024-02-28T12:31:58;22.27;;;10.17;;
75698;SDS011;64313;51.018;13.742;2024-02-28T12:34:24;23.25;;;10.95;;
75698;SDS011;64313;51.018;13.742;2024-02-28T12:36:49;25.80;;;12.13;;
75698;SDS011;64313;51.018;13.742;2024-02-28T12:39:15;24.95;;;11.25;;
75698;SDS011;64313;51.018;13.742;2024-02-28T12:44:05;28.35;;;13.15;;
75698;SDS011;64313;51.018;13.742;2024-02-28T12:46:31;32.13;;;14.27;;
75698;SDS011;64313;51.018;13.742;2024-02-28T12:48:58;28.58;;;12.75;;
75698;SDS011;64313;51.018;13.742;2024-02-28T12:51:39;26.23;;;12.68;;
75698;SDS011;64313;51.018;13.742;2024-02-28T12:54:05;27.02;;;11.48;;
75698;SDS011;64313;51.018;13.742;2024-02-28T12:56:31;27.92;;;12.15;;
75698;SDS011;64313;51.018;13.742;2024-02-28T13:01:22;25.87;;;11.23;;
75698;SDS011;64313;51.018;13.742;2024-02-28T13:06:13;25.52;;;11.55;;
75698;SDS011;64313;51.018;13.742;2024-02-28T13:08:40;31.60;;;12.45;;
75698;SDS011;64313;51.018;13.742;2024-02-28T13:13:32;27.33;;;12.38;;
75698;SDS011;64313;51.018;13.742;2024-02-28T13:18:23;27.13;;;12.13;;
75698;SDS011;64313;51.018;13.742;2024-02-28T13:20:50;27.95;;;12.48;;
75698;SDS011;64313;51.018;13.742;2024-02-28T13:25:41;27.73;;;11.60;;
75698;SDS011;64313;51.018;13.742;2024-02-28T13:30:32;25.13;;;11.63;;
75698;SDS011;64313;51.018;13.742;2024-02-28T13:33:00;26.77;;;12.30;;
75698;SDS011;64313;51.018;13.742;2024-02-28T13:37:50;27.33;;;12.50;;
75698;SDS011;64313;51.018;13.742;2024-02-28T13:42:41;25.00;;;11.80;;
75698;SDS011;64313;51.018;13.742;2024-02-28T13:47:32;24.45;;;12.60;;
75698;SDS011;64313;51.018;13.742;2024-02-28T13:49:59;27.77;;;13.50;;
75698;SDS011;64313;51.018;13.742;2024-02-28T13:54:49;27.07;;;13.43;;
75698;SDS011;64313;51.018;13.742;2024-02-28T13:57:16;27.85;;;13.50;;
75698;SDS011;64313;51.018;13.742;2024-02-28T14:02:08;28.48;;;13.98;;
75698;SDS011;64313;51.018;13.742;2024-02-28T14:04:35;27.38;;;14.40;;
75698;SDS011;64313;51.018;13.742;2024-02-28T14:09:26;25.95;;;12.85;;
75698;SDS011;64313;51.018;13.742;2024-02-28T14:14:16;28.03;;;13.90;;
75698;SDS011;64313;51.018;13.742;2024-02-28T14:16:42;27.00;;;14.10;;
75698;SDS011;64313;51.018;13.742;2024-02-28T14:21:33;24.33;;;13.05;;
75698;SDS011;64313;51.018;13.742;2024-02-28T14:23:59;29.13;;;15.13;;
75698;SDS011;64313;51.018;13.742;2024-02-28T14:28:49;31.10;;;14.87;;
75698;SDS011;64313;51.018;13.742;2024-02-28T14:31:15;27.38;;;14.38;;
75698;SDS011;64313;51.018;13.742;2024-02-28T14:36:05;26.27;;;13.87;;
75698;SDS011;64313;51.018;13.742;2024-02-28T14:38:31;26.02;;;14.23;;
75698;SDS011;64313;51.018;13.742;2024-02-28T14:43:22;22.33;;;12.93;;
75698;SDS011;64313;51.018;13.742;2024-02-28T14:48:12;24.80;;;13.80;;
75698;SDS011;64313;51.018;13.742;2024-02-28T14:50:38;24.48;;;13.95;;
75698;SDS011;64313;51.018;13.742;2024-02-28T14:55:28;24.63;;;13.98;;
75698;SDS011;64313;51.018;13.742;2024-02-28T15:00:19;24.53;;;14.17;;
75698;SDS011;64313;51.018;13.742;2024-02-28T15:05:10;25.38;;;14.52;;
75698;SDS011;64313;51.018;13.742;2024-02-28T15:07:36;23.30;;;14.30;;
75698;SDS011;64313;51.018;13.742;2024-02-28T15:10:04;25.02;;;14.55;;
75698;SDS011;64313;51.018;13.742;2024-02-28T15:12:32;26.92;;;14.18;;
75698;SDS011;64313;51.018;13.742;2024-02-28T15:15:03;24.92;;;14.48;;
75698;SDS011;64313;51.018;13.742;2024-02-28T15:17:32;25.65;;;14.60;;
75698;SDS011;64313;51.018;13.742;2024-02-28T15:19:57;24.42;;;13.93;;
75698;SDS011;64313;51.018;13.742;2024-02-28T15:24:48;24.05;;;13.55;;
75698;SDS011;64313;51.018;13.742;2024-02-28T15:27:13;23.58;;;13.70;;
75698;SDS011;64313;51.018;13.742;2024-02-28T15:29:39;23.85;;;14.38;;
75698;SDS011;64313;51.018;13.742;2024-02-28T15:32:05;26.27;;;14.77;;
75698;SDS011;64313;51.018;13.742;2024-02-28T15:36:56;22.77;;;13.37;;
75698;SDS011;64313;51.018;13.742;2024-02-28T15:39:22;24.45;;;13.13;;
75698;SDS011;64313;51.018;13.742;2024-02-28T15:41:47;23.05;;;13.50;;
75698;SDS011;64313;51.018;13.742;2024-02-28T15:44:13;26.92;;;14.25;;
75698;SDS011;64313;51.018;13.742;2024-02-28T15:49:04;22.60;;;13.18;;
75698;SDS011;64313;51.018;13.742;2024-02-28T15:53:57;23.27;;;13.50;;
75698;SDS011;64313;51.018;13.742;2024-02-28T15:56:23;24.63;;;14.38;;
75698;SDS011;64313;51.018;13.742;2024-02-28T15:58:49;24.40;;;14.05;;
75698;SDS011;64313;51.018;13.742;2024-02-28T16:03:40;25.33;;;13.32;;
75698;SDS011;64313;51.018;13.742;2024-02-28T16:06:07;25.98;;;14.55;;
75698;SDS011;64313;51.018;13.742;2024-02-28T16:08:32;23.98;;;13.48;;
75698;SDS011;64313;51.018;13.742;2024-02-28T16:10:58;21.98;;;12.65;;
75698;SDS011;64313;51.018;13.742;2024-02-28T16:13:24;23.10;;;13.55;;
75698;SDS011;64313;51.018;13.742;2024-02-28T16:18:15;22.08;;;12.40;;
75698;SDS011;64313;51.018;13.742;2024-02-28T16:23:07;23.10;;;13.05;;
75698;SDS011;64313;51.018;13.742;2024-02-28T16:25:33;22.98;;;13.18;;
75698;SDS011;64313;51.018;13.742;2024-02-28T16:30:24;25.57;;;13.77;;
75698;SDS011;64313;51.018;13.742;2024-02-28T16:32:49;23.90;;;13.90;;
75698;SDS011;64313;51.018;13.742;2024-02-28T16:37:39;21.63;;;12.93;;
75698;SDS011;64313;51.018;13.742;2024-02-28T16:40:05;22.02;;;12.38;;
75698;SDS011;64313;51.018;13.742;2024-02-28T16:42:31;24.08;;;13.70;;
75698;SDS011;64313;51.018;13.742;2024-02-28T16:44:57;26.33;;;14.10;;
75698;SDS011;64313;51.018;13.742;2024-02-28T16:47:22;24.00;;;13.75;;
75698;SDS011;64313;51.018;13.742;2024-02-28T16:49:49;23.95;;;14.18;;
75698;SDS011;64313;51.018;13.742;2024-02-28T16:52:14;25.92;;;15.13;;
75698;SDS011;64313;51.018;13.742;2024-02-28T16:54:41;25.50;;;13.57;;
75698;SDS011;64313;51.018;13.742;2024-02-28T16:57:07;25.35;;;13.63;;
75698;SDS011;64313;51.018;13.742;2024-02-28T16:59:32;25.83;;;14.25;;
75698;SDS011;64313;51.018;13.742;2024-02-28T17:04:23;26.23;;;14.43;;
75698;SDS011;64313;51.018;13.742;2024-02-28T17:06:51;28.05;;;15.02;;
75698;SDS011;64313;51.018;13.742;2024-02-28T17:11:42;32.57;;;16.93;;
75698;SDS011;64313;51.018;13.742;2024-02-28T17:16:32;30.70;;;17.17;;
75698;SDS011;64313;51.018;13.742;2024-02-28T17:18:58;26.35;;;16.10;;
75698;SDS011;64313;51.018;13.742;2024-02-28T17:23:48;27.77;;;15.57;;
75698;SDS011;64313;51.018;13.742;2024-02-28T17:28:39;26.33;;;15.35;;
75698;SDS011;64313;51.018;13.742;2024-02-28T17:33:30;26.07;;;14.83;;
75698;SDS011;64313;51.018;13.742;2024-02-28T17:38:21;29.80;;;15.13;;
75698;SDS011;64313;51.018;13.742;2024-02-28T17:43:13;28.13;;;15.27;;
75698;SDS011;64313;51.018;13.742;2024-02-28T17:45:40;27.63;;;15.80;;
75698;SDS011;64313;51.018;13.742;2024-02-28T17:50:32;28.45;;;15.60;;
75698;SDS011;64313;51.018;13.742;2024-02-28T17:52:57;30.40;;;15.00;;
75698;SDS011;64313;51.018;13.742;2024-02-28T17:57:48;27.73;;;15.33;;
75698;SDS011;64313;51.018;13.742;2024-02-28T18:00:15;28.30;;;14.95;;
75698;SDS011;64313;51.018;13.742;2024-02-28T18:02:46;28.83;;;15.27;;
75698;SDS011;64313;51.018;13.742;2024-02-28T18:05:12;29.50;;;15.63;;
75698;SDS011;64313;51.018;13.742;2024-02-28T18:07:39;27.05;;;15.85;;
75698;SDS011;64313;51.018;13.742;2024-02-28T18:10:07;28.27;;;15.52;;
75698;SDS011;64313;51.018;13.742;2024-02-28T18:12:35;27.23;;;15.65;;
75698;SDS011;64313;51.018;13.742;2024-02-28T18:15:02;28.63;;;15.70;;
75698;SDS011;64313;51.018;13.742;2024-02-28T18:19:53;27.60;;;14.57;;
75698;SDS011;64313;51.018;13.742;2024-02-28T18:24:43;31.90;;;15.67;;
75698;SDS011;64313;51.018;13.742;2024-02-28T18:29:35;28.00;;;14.48;;
75698;SDS011;64313;51.018;13.742;2024-02-28T18:34:26;31.23;;;15.30;;
75698;SDS011;64313;51.018;13.742;2024-02-28T18:39:17;31.03;;;15.33;;
75698;SDS011;64313;51.018;13.742;2024-02-28T18:44:07;30.70;;;15.30;;
75698;SDS011;64313;51.018;13.742;2024-02-28T18:46:33;29.98;;;15.95;;
75698;SDS011;64313;51.018;13.742;2024-02-28T18:51:23;34.00;;;15.90;;
75698;SDS011;64313;51.018;13.742;2024-02-28T18:56:14;29.97;;;15.60;;
75698;SDS011;64313;51.018;13.742;2024-02-28T19:01:04;34.87;;;16.17;;
75698;SDS011;64313;51.018;13.742;2024-02-28T19:03:30;31.10;;;15.38;;
75698;SDS011;64313;51.018;13.742;2024-02-28T19:08:20;29.80;;;15.63;;
75698;SDS011;64313;51.018;13.742;2024-02-28T19:10:46;32.60;;;15.48;;
75698;SDS011;64313;51.018;13.742;2024-02-28T19:15:37;29.92;;;15.40;;
75698;SDS011;64313;51.018;13.742;2024-02-28T19:20:28;31.48;;;15.63;;
75698;SDS011;64313;51.018;13.742;2024-02-28T19:25:18;31.17;;;15.97;;
75698;SDS011;64313;51.018;13.742;2024-02-28T19:30:09;31.10;;;16.00;;
75698;SDS011;64313;51.018;13.742;2024-02-28T19:35:03;36.05;;;16.98;;
75698;SDS011;64313;51.018;13.742;2024-02-28T19:39:54;32.87;;;16.27;;
75698;SDS011;64313;51.018;13.742;2024-02-28T19:42:24;31.73;;;16.45;;
75698;SDS011;64313;51.018;13.742;2024-02-28T19:47:15;30.90;;;16.27;;
75698;SDS011;64313;51.018;13.742;2024-02-28T19:52:06;34.28;;;16.92;;
75698;SDS011;64313;51.018;13.742;2024-02-28T19:54:31;32.15;;;16.63;;
75698;SDS011;64313;51.018;13.742;2024-02-28T19:56:58;33.88;;;16.40;;
75698;SDS011;64313;51.018;13.742;2024-02-28T19:59:23;31.10;;;16.90;;
75698;SDS011;64313;51.018;13.742;2024-02-28T20:01:48;31.27;;;15.93;;
75698;SDS011;64313;51.018;13.742;2024-02-28T20:04:14;34.42;;;16.85;;
75698;SDS011;64313;51.018;13.742;2024-02-28T20:06:39;31.77;;;16.13;;
75698;SDS011;64313;51.018;13.742;2024-02-28T20:09:07;31.15;;;16.23;;
75698;SDS011;64313;51.018;13.742;2024-02-28T20:11:33;35.28;;;17.00;;
75698;SDS011;64313;51.018;13.742;2024-02-28T20:13:58;33.83;;;17.40;;
75698;SDS011;64313;51.018;13.742;2024-02-28T20:16:23;33.45;;;17.02;;
75698;SDS011;64313;51.018;13.742;2024-02-28T20:18:50;32.70;;;15.88;;
75698;SDS011;64313;51.018;13.742;2024-02-28T20:23:43;32.33;;;16.10;;
75698;SDS011;64313;51.018;13.742;2024-02-28T20:26:08;32.80;;;16.70;;
75698;SDS011;64313;51.018;13.742;2024-02-28T20:28:33;33.38;;;17.48;;
75698;SDS011;64313;51.018;13.742;2024-02-28T20:30:59;31.58;;;16.65;;
75698;SDS011;64313;51.018;13.742;2024-02-28T20:33:24;36.05;;;18.08;;
75698;SDS011;64313;51.018;13.742;2024-02-28T20:35:52;36.25;;;19.00;;
75698;SDS011;64313;51.018;13.742;2024-02-28T20:38:18;39.45;;;18.65;;
75698;SDS011;64313;51.018;13.742;2024-02-28T20:40:46;33.33;;;17.70;;
75698;SDS011;64313;51.018;13.742;2024-02-28T20:43:12;34.85;;;18.50;;
75698;SDS011;64313;51.018;13.742;2024-02-28T20:45:37;34.15;;;18.02;;
75698;SDS011;64313;51.018;13.742;2024-02-28T20:48:03;32.10;;;17.15;;
75698;SDS011;64313;51.018;13.742;2024-02-28T20:50:28;35.30;;;17.08;;
75698;SDS011;64313;51.018;13.742;2024-02-28T20:52:54;32.55;;;17.42;;
75698;SDS011;64313;51.018;13.742;2024-02-28T20:55:19;32.83;;;15.98;;
75698;SDS011;64313;51.018;13.742;2024-02-28T20:57:46;34.53;;;16.50;;
75698;SDS011;64313;51.018;13.742;2024-02-28T21:00:12;31.15;;;16.10;;
75698;SDS011;64313;51.018;13.742;2024-02-28T21:02:39;31.77;;;15.55;;
75698;SDS011;64313;51.018;13.742;2024-02-28T21:05:04;32.65;;;16.42;;
75698;SDS011;64313;51.018;13.742;2024-02-28T21:09:55;34.38;;;16.38;;
75698;SDS011;64313;51.018;13.742;2024-02-28T21:12:20;32.50;;;15.85;;
75698;SDS011;64313;51.018;13.742;2024-02-28T21:14:52;33.08;;;16.17;;